Alva, Florida
Current Conditions -  °F | °C
As of 10:53 PM on Friday 24 Oct 2014 (Local Time) from KRSW Reporting Station
Clear Clear  
Wind Chill: 68°   Ceiling: Unl
Heat Index: 68°   Visibility: 10mi
Dew Point: 59°   Wind: 7mph
Humidity: 73%   Direction: 40°NE
Pressure: 29.93"   Gusts: NA
Location:  26.72°N, 81.61°W
Report Text: KRSW 250253Z 04006KT 10SM CLR 20/15 A2993 RMK AO2 SLP133 T02000150 51020
Loading
Personal Weather Stations






























Interactive Weather Map
Tropical Storm Tracking
New forecast layout! Learn more

10-Day Weather Forecast

Advertisements
Track Severe Weather on mobile